Time;durP1;ratioP1;P1;durP2;ratioP2;P2;SDS_P1;SDS_P2;PMS_P1;PMS_P2;Temp;Humidity;BMP_temperature;BMP_pressure;BME280_temperature;BME280_humidity;BME280_pressure;Samples;Min_cycle;Max_cycle;Signal;HPM_P1;HPM_P2
2023/03/30 00:00:27;;;;;;;29.17;14.40;;;;;;;;;;4990423;28;20125;-72
2023/03/30 00:02:53;;;;;;;31.08;13.90;;;;;;;;;;4988803;28;20085;-72
2023/03/30 00:05:18;;;;;;;29.05;14.13;;;;;;;;;;4988627;28;20037;-71
2023/03/30 00:07:44;;;;;;;27.83;14.63;;;;;;;;;;4987362;28;20023;-72
2023/03/30 00:10:16;;;;;;;27.38;13.85;;;;;;;;;;4987986;28;20623;-72
2023/03/30 00:12:42;;;;;;;26.80;13.90;;;;;;;;;;4990313;28;20583;-72
2023/03/30 00:15:08;;;;;;;30.08;14.82;;;;;;;;;;4987182;28;20113;-72
2023/03/30 00:17:35;;;;;;;33.63;14.00;;;;;;;;;;4987846;28;20793;-72
2023/03/30 00:20:10;;;;;;;25.70;13.20;;;;;;;;;;4990548;28;20079;-72
2023/03/30 00:22:35;;;;;;;23.65;12.10;;;;;;;;;;4991434;28;20026;-72
2023/03/30 00:25:01;;;;;;;22.85;11.05;;;;;;;;;;4988791;28;20084;-72
2023/03/30 00:27:26;;;;;;;24.13;12.38;;;;;;;;;;4988430;28;20657;-72
2023/03/30 00:29:51;;;;;;;26.97;13.47;;;;;;;;;;4987012;28;20030;-71
2023/03/30 00:32:16;;;;;;;28.10;13.97;;;;;;;;;;4987504;28;20342;-72
2023/03/30 00:34:42;;;;;;;30.38;13.55;;;;;;;;;;4985971;28;20275;-72
2023/03/30 00:37:07;;;;;;;27.83;13.87;;;;;;;;;;4994698;28;20097;-72
2023/03/30 00:39:32;;;;;;;25.70;13.50;;;;;;;;;;4986741;28;20283;-72
2023/03/30 00:41:57;;;;;;;28.52;12.57;;;;;;;;;;4982617;28;20358;-72
2023/03/30 00:44:41;;;;;;;28.38;13.68;;;;;;;;;;4986569;28;20117;-72
2023/03/30 00:47:07;;;;;;;27.05;12.93;;;;;;;;;;4987694;28;20463;-72
2023/03/30 00:49:33;;;;;;;27.75;12.90;;;;;;;;;;4989045;28;20026;-72
2023/03/30 00:51:59;;;;;;;24.38;12.15;;;;;;;;;;4991516;28;20121;-72
2023/03/30 00:54:24;;;;;;;25.00;12.82;;;;;;;;;;4984916;28;20046;-71
2023/03/30 00:56:50;;;;;;;25.85;13.05;;;;;;;;;;4982709;28;20381;-72
2023/03/30 00:59:15;;;;;;;24.60;12.63;;;;;;;;;;4985999;28;20153;-72
2023/03/30 01:01:40;;;;;;;23.03;12.33;;;;;;;;;;4987449;28;20034;-72
2023/03/30 01:04:07;;;;;;;23.65;11.90;;;;;;;;;;4987652;28;20056;-72
2023/03/30 01:06:33;;;;;;;22.80;11.10;;;;;;;;;;4987183;28;20034;-72
2023/03/30 01:08:59;;;;;;;23.42;12.45;;;;;;;;;;4982310;28;20045;-72
2023/03/30 01:11:25;;;;;;;26.60;12.48;;;;;;;;;;4986904;28;20034;-72
2023/03/30 01:14:02;;;;;;;24.77;12.73;;;;;;;;;;4984569;28;20042;-72
2023/03/30 01:16:27;;;;;;;24.90;12.85;;;;;;;;;;4984267;28;20090;-72
2023/03/30 01:19:11;;;;;;;26.57;13.17;;;;;;;;;;4986618;28;20140;-72
2023/03/30 01:21:57;;;;;;;24.38;12.23;;;;;;;;;;4986215;28;20464;-71
2023/03/30 01:24:41;;;;;;;28.60;12.70;;;;;;;;;;4984431;28;20030;-72
2023/03/30 01:27:09;;;;;;;34.45;12.65;;;;;;;;;;4986270;28;20444;-72
2023/03/30 01:29:53;;;;;;;26.63;13.85;;;;;;;;;;4985443;28;20034;-72
2023/03/30 01:32:50;;;;;;;27.75;12.90;;;;;;;;;;4987061;28;20030;-72
2023/03/30 01:35:34;;;;;;;26.35;12.50;;;;;;;;;;4940040;28;20555;-72
2023/03/30 01:38:18;;;;;;;20.45;11.52;;;;;;;;;;4986532;28;20042;-72
2023/03/30 01:40:49;;;;;;;28.75;12.30;;;;;;;;;;4985152;28;20029;-72
2023/03/30 01:43:17;;;;;;;28.63;12.32;;;;;;;;;;4988867;28;20026;-72
2023/03/30 01:45:49;;;;;;;23.30;11.73;;;;;;;;;;4980782;28;20353;-72
2023/03/30 01:48:17;;;;;;;24.83;11.35;;;;;;;;;;4979708;28;20030;-72
2023/03/30 01:50:46;;;;;;;20.50;10.90;;;;;;;;;;4981106;28;20029;-71
2023/03/30 01:53:22;;;;;;;21.10;10.48;;;;;;;;;;4983132;28;20019;-72
2023/03/30 01:55:51;;;;;;;20.63;10.80;;;;;;;;;;4981009;28;20030;-72
2023/03/30 01:58:17;;;;;;;;;;;;;;;;;;4986146;28;20042;-71
2023/03/30 02:00:43;;;;;;;20.13;9.83;;;;;;;;;;4979873;28;19913;-72
2023/03/30 02:03:14;;;;;;;19.70;10.38;;;;;;;;;;4987270;28;20069;-72
2023/03/30 02:05:41;;;;;;;21.65;10.50;;;;;;;;;;4988548;28;20033;-72
2023/03/30 02:08:14;;;;;;;18.10;10.20;;;;;;;;;;4988504;28;20134;-72
2023/03/30 02:10:40;;;;;;;19.77;10.00;;;;;;;;;;4984487;28;20034;-72
2023/03/30 02:13:06;;;;;;;22.42;10.43;;;;;;;;;;4985133;28;20108;-72
2023/03/30 02:15:36;;;;;;;18.88;9.68;;;;;;;;;;4987244;28;20042;-72
2023/03/30 02:18:01;;;;;;;22.63;10.38;;;;;;;;;;4985543;28;20440;-72
2023/03/30 02:20:28;;;;;;;18.15;9.68;;;;;;;;;;4985938;28;20080;-71
2023/03/30 02:22:53;;;;;;;19.65;10.52;;;;;;;;;;4986188;28;20096;-72
2023/03/30 02:25:19;;;;;;;19.10;10.48;;;;;;;;;;4986999;28;20030;-72
2023/03/30 02:27:44;;;;;;;20.63;9.82;;;;;;;;;;4984069;28;20137;-72
2023/03/30 02:30:10;;;;;;;18.60;9.75;;;;;;;;;;4984045;28;20030;-72
2023/03/30 02:32:41;;;;;;;19.65;10.15;;;;;;;;;;4981448;28;20495;-72
2023/03/30 02:35:29;;;;;;;18.38;9.57;;;;;;;;;;4984805;28;20041;-72
2023/03/30 02:38:14;;;;;;;19.70;9.77;;;;;;;;;;4973927;28;20137;-72
2023/03/30 02:41:14;;;;;;;18.08;9.30;;;;;;;;;;4984197;28;20030;-72
2023/03/30 02:43:59;;;;;;;18.13;9.55;;;;;;;;;;4929085;29;20079;-72
2023/03/30 02:46:39;;;;;;;18.00;9.55;;;;;;;;;;4928212;29;20102;-71
2023/03/30 02:49:07;;;;;;;18.73;9.38;;;;;;;;;;4928506;29;20459;-72
2023/03/30 02:51:37;;;;;;;17.73;9.10;;;;;;;;;;4931033;29;20071;-72
2023/03/30 02:54:21;;;;;;;21.55;9.75;;;;;;;;;;4929223;29;20027;-72
2023/03/30 02:56:47;;;;;;;19.48;9.15;;;;;;;;;;4926114;29;20195;-71
2023/03/30 02:59:16;;;;;;;21.52;9.25;;;;;;;;;;4922656;29;20039;-72
2023/03/30 03:01:42;;;;;;;20.30;9.13;;;;;;;;;;4925721;29;20177;-73
2023/03/30 03:04:09;;;;;;;18.05;9.15;;;;;;;;;;4925037;29;20782;-72
2023/03/30 03:06:36;;;;;;;17.75;9.23;;;;;;;;;;4924426;29;20066;-72
2023/03/30 03:09:03;;;;;;;18.90;9.93;;;;;;;;;;4924382;29;20034;-72
2023/03/30 03:11:28;;;;;;;18.80;9.32;;;;;;;;;;4907897;29;20095;-72
2023/03/30 03:13:54;;;;;;;18.23;9.00;;;;;;;;;;4924970;29;20035;-72
2023/03/30 03:16:20;;;;;;;20.58;9.63;;;;;;;;;;4907147;29;20062;-72
2023/03/30 03:18:45;;;;;;;18.27;8.82;;;;;;;;;;4991622;28;20073;-72
2023/03/30 03:21:12;;;;;;;19.13;9.10;;;;;;;;;;4984471;28;20122;-72
2023/03/30 03:23:38;;;;;;;20.77;8.90;;;;;;;;;;4976459;28;20766;-73
2023/03/30 03:26:04;;;;;;;18.02;8.93;;;;;;;;;;4987380;28;20026;-72
2023/03/30 03:28:30;;;;;;;15.65;8.50;;;;;;;;;;4984672;28;20184;-72
2023/03/30 03:30:57;;;;;;;18.52;8.98;;;;;;;;;;4982936;28;20065;-72
2023/03/30 03:33:22;;;;;;;16.33;8.82;;;;;;;;;;4987558;28;20041;-72
2023/03/30 03:35:52;;;;;;;20.67;9.77;;;;;;;;;;4985997;28;20026;-72
2023/03/30 03:38:17;;;;;;;15.98;8.70;;;;;;;;;;4987984;28;20034;-72
2023/03/30 03:40:43;;;;;;;19.33;9.23;;;;;;;;;;4988943;28;20412;-72
2023/03/30 03:43:08;;;;;;;22.10;8.57;;;;;;;;;;4987035;28;20030;-72
2023/03/30 03:45:33;;;;;;;22.95;9.45;;;;;;;;;;4991143;28;20064;-72
2023/03/30 03:47:59;;;;;;;17.57;8.93;;;;;;;;;;4986153;28;20036;-72
2023/03/30 03:50:24;;;;;;;18.23;9.63;;;;;;;;;;4992165;28;20283;-72
2023/03/30 03:52:49;;;;;;;18.55;8.48;;;;;;;;;;4989259;28;20033;-73
2023/03/30 03:55:15;;;;;;;17.97;8.97;;;;;;;;;;4987277;28;20030;-72
2023/03/30 03:57:40;;;;;;;15.77;8.57;;;;;;;;;;4984948;28;20805;-72
2023/03/30 04:00:14;;;;;;;21.98;8.65;;;;;;;;;;4987212;28;20026;-72
2023/03/30 04:02:40;;;;;;;18.83;8.95;;;;;;;;;;4988043;28;20036;-69
2023/03/30 04:05:05;;;;;;;19.15;9.32;;;;;;;;;;4987133;28;20065;-69
2023/03/30 04:07:33;;;;;;;26.05;9.98;;;;;;;;;;4989352;28;20484;-69
2023/03/30 04:09:58;;;;;;;21.45;9.88;;;;;;;;;;4986155;28;20085;-69
2023/03/30 04:12:23;;;;;;;19.42;10.48;;;;;;;;;;4988709;28;20742;-70
2023/03/30 04:14:48;;;;;;;16.40;9.13;;;;;;;;;;4985664;28;20112;-69
2023/03/30 04:17:14;;;;;;;23.02;10.18;;;;;;;;;;4985759;28;20112;-71
2023/03/30 04:19:40;;;;;;;20.85;9.50;;;;;;;;;;4984550;28;20035;-71
2023/03/30 04:22:06;;;;;;;20.23;9.35;;;;;;;;;;4987147;28;20034;-71
2023/03/30 04:24:34;;;;;;;20.42;9.60;;;;;;;;;;4986667;28;20091;-70
2023/03/30 04:26:59;;;;;;;20.10;9.70;;;;;;;;;;4990352;28;20018;-70
2023/03/30 04:29:24;;;;;;;22.13;9.53;;;;;;;;;;4988450;28;20597;-71
2023/03/30 04:31:50;;;;;;;28.48;10.35;;;;;;;;;;4987237;28;20279;-70
2023/03/30 04:34:20;;;;;;;25.80;9.75;;;;;;;;;;4980291;28;20034;-71
2023/03/30 04:36:46;;;;;;;20.25;9.52;;;;;;;;;;4984975;28;20799;-72
2023/03/30 04:39:12;;;;;;;26.17;10.55;;;;;;;;;;4982094;28;20096;-71
2023/03/30 04:41:40;;;;;;;20.58;9.55;;;;;;;;;;4987280;28;20037;-72
2023/03/30 04:44:08;;;;;;;31.60;10.45;;;;;;;;;;4983619;28;20034;-71
2023/03/30 04:46:33;;;;;;;22.08;9.77;;;;;;;;;;4983646;28;20019;-71
2023/03/30 04:48:58;;;;;;;19.10;8.67;;;;;;;;;;4979045;28;20038;-70
2023/03/30 04:51:24;;;;;;;22.55;10.05;;;;;;;;;;4988735;28;20307;-71
2023/03/30 04:53:49;;;;;;;20.75;8.77;;;;;;;;;;4987093;28;20038;-72
2023/03/30 04:56:15;;;;;;;20.25;9.27;;;;;;;;;;4988798;28;20099;-73
2023/03/30 04:58:40;;;;;;;24.33;9.82;;;;;;;;;;4986841;28;20026;-73
2023/03/30 05:01:05;;;;;;;25.63;10.05;;;;;;;;;;4979033;28;20716;-74
2023/03/30 05:03:31;;;;;;;27.47;10.40;;;;;;;;;;4984389;28;20022;-75
2023/03/30 05:05:56;;;;;;;32.10;10.65;;;;;;;;;;4984857;28;20299;-73
2023/03/30 05:08:22;;;;;;;19.60;9.32;;;;;;;;;;4985339;28;20116;-71
2023/03/30 05:10:47;;;;;;;24.55;10.32;;;;;;;;;;4987340;28;20045;-70
2023/03/30 05:13:12;;;;;;;23.23;10.07;;;;;;;;;;4989599;28;20837;-71
2023/03/30 05:15:38;;;;;;;31.55;10.88;;;;;;;;;;4988326;28;20287;-71
2023/03/30 05:18:04;;;;;;;23.08;10.02;;;;;;;;;;4991578;28;20026;-71
2023/03/30 05:20:29;;;;;;;21.77;10.35;;;;;;;;;;4986911;28;20038;-70
2023/03/30 05:22:55;;;;;;;29.40;10.18;;;;;;;;;;4986571;28;20100;-69
2023/03/30 05:25:20;;;;;;;22.10;9.93;;;;;;;;;;4986356;28;20034;-71
2023/03/30 05:27:45;;;;;;;22.20;10.23;;;;;;;;;;4989802;28;20025;-70
2023/03/30 05:30:11;;;;;;;26.53;10.37;;;;;;;;;;4990330;28;20117;-72
2023/03/30 05:32:36;;;;;;;18.75;9.18;;;;;;;;;;4988432;28;20350;-73
2023/03/30 05:35:02;;;;;;;18.50;9.15;;;;;;;;;;4986008;28;20041;-73
2023/03/30 05:37:27;;;;;;;20.98;9.65;;;;;;;;;;4987176;28;20026;-71
2023/03/30 05:39:52;;;;;;;23.38;9.02;;;;;;;;;;4981564;28;20050;-71
2023/03/30 05:42:18;;;;;;;20.23;9.10;;;;;;;;;;4987625;28;20049;-71
2023/03/30 05:44:43;;;;;;;18.67;8.47;;;;;;;;;;4986713;28;20286;-71
2023/03/30 05:47:08;;;;;;;19.08;8.68;;;;;;;;;;4986107;28;20291;-72
2023/03/30 05:49:33;;;;;;;19.33;8.40;;;;;;;;;;4986281;28;20053;-71
2023/03/30 05:51:59;;;;;;;15.73;8.17;;;;;;;;;;4987122;28;20369;-71
2023/03/30 05:54:26;;;;;;;20.02;8.70;;;;;;;1.13;nan;101202.66;4987634;28;20049;-71
2023/03/30 05:56:51;;;;;;;20.73;9.15;;;;;;;;;;4985345;28;20058;-72
2023/03/30 05:59:17;;;;;;;25.17;9.20;;;;;;;;;;4985543;28;20053;-70
2023/03/30 06:01:42;;;;;;;17.42;8.68;;;;;;;;;;4984807;28;20038;-73
2023/03/30 06:04:07;;;;;;;20.55;9.05;;;;;;;;;;4985922;28;21363;-73
2023/03/30 06:06:32;;;;;;;19.47;8.23;;;;;;;;;;4981564;28;20041;-74
2023/03/30 06:08:58;;;;;;;18.83;8.77;;;;;;;;;;4984437;28;20951;-73
2023/03/30 06:11:23;;;;;;;19.45;9.40;;;;;;;2.07;nan;101198.94;4986013;28;20176;-71
2023/03/30 06:13:49;;;;;;;23.73;8.85;;;;;;;2.21;nan;101205.41;4987517;28;20385;-71
2023/03/30 06:16:14;;;;;;;18.73;8.80;;;;;;;2.30;nan;101205.31;4983628;28;20053;-72
2023/03/30 06:18:40;;;;;;;24.00;8.73;;;;;;;2.32;nan;101203.38;4988289;28;20507;-72
2023/03/30 06:21:06;;;;;;;21.55;9.15;;;;;;;;;;4980661;28;20040;-71
2023/03/30 06:23:35;;;;;;;19.73;8.45;;;;;;;;;;4983432;28;20057;-71
2023/03/30 06:26:01;;;;;;;23.13;8.52;;;;;;;;;;4988140;28;20026;-72
2023/03/30 06:28:26;;;;;;;15.90;8.20;;;;;;;;;;4985980;28;20026;-71
2023/03/30 06:30:52;;;;;;;17.05;7.50;;;;;;;;;;4985562;28;20169;-71
2023/03/30 06:33:18;;;;;;;18.90;8.15;;;;;;;;;;4986480;28;20049;-72
2023/03/30 06:35:47;;;;;;;15.57;7.57;;;;;;;;;;4980677;28;20027;-71
2023/03/30 06:38:12;;;;;;;;;;;;;;;;;;4977826;28;20845;-72
2023/03/30 06:40:38;;;;;;;16.92;6.10;;;;;;;3.20;nan;101208.41;4980534;28;20315;-71
2023/03/30 06:43:03;;;;;;;17.83;6.82;;;;;;;;;;4979343;28;20034;-72
2023/03/30 06:45:28;;;;;;;11.43;6.30;;;;;;;3.58;nan;101211.47;4982103;28;20066;-71
2023/03/30 06:47:54;;;;;;;14.70;7.10;;;;;;;3.73;nan;101213.47;4978745;28;20327;-72
2023/03/30 06:50:20;;;;;;;14.48;6.65;;;;;;;3.80;nan;101211.84;4982710;28;20030;-70
2023/03/30 06:52:46;;;;;;;12.90;6.65;;;;;;;3.94;nan;101211.22;4984298;28;20366;-70
2023/03/30 06:55:11;;;;;;;12.82;6.68;;;;;;;;;;4986672;28;20512;-70
2023/03/30 06:57:36;;;;;;;13.50;6.60;;;;;;;;;;4985454;28;20030;-70
2023/03/30 07:00:06;;;;;;;16.17;7.63;;;;;;;;;;4986010;28;20092;-71
2023/03/30 07:02:31;;;;;;;;;;;;;;;;;;4986039;28;20041;-71
2023/03/30 07:04:57;;;;;;;16.63;7.47;;;;;;;;;;4985319;28;19914;-70
2023/03/30 07:07:22;;;;;;;18.53;8.47;;;;;;;4.71;nan;101216.09;4984901;28;20525;-70
2023/03/30 07:09:48;;;;;;;15.27;7.25;;;;;;;;;;4984724;28;20291;-70
2023/03/30 07:12:13;;;;;;;13.10;7.22;;;;;;;;;;4986379;28;20400;-72
2023/03/30 07:14:38;;;;;;;15.10;6.73;;;;;;;;;;4986442;28;20164;-71
2023/03/30 07:17:03;;;;;;;13.93;7.20;;;;;;;;;;4984528;28;20284;-71
2023/03/30 07:19:29;;;;;;;14.47;7.20;;;;;;;;;;4978497;28;20280;-71
2023/03/30 07:21:54;;;;;;;15.10;7.05;;;;;;;;;;4961506;28;20084;-71
2023/03/30 07:24:20;;;;;;;13.82;6.93;;;;;;;;;;4980687;28;20117;-70
2023/03/30 07:26:46;;;;;;;13.90;6.80;;;;;;;;;;4987378;28;20118;-71
2023/03/30 07:29:11;;;;;;;12.03;6.87;;;;;;;;;;4987929;28;20429;-71
2023/03/30 07:31:36;;;;;;;13.83;5.90;;;;;;;;;;4987834;28;20284;-71
2023/03/30 07:34:03;;;;;;;11.88;5.85;;;;;;;;;;4988422;28;20030;-72
2023/03/30 07:36:28;;;;;;;13.57;5.68;;;;;;;;;;4987548;28;20034;-71
2023/03/30 07:38:53;;;;;;;12.40;5.30;;;;;;;;;;4989005;28;20036;-71
2023/03/30 07:41:18;;;;;;;7.18;4.50;;;;;;;;;;4986002;28;20057;-71
2023/03/30 07:43:44;;;;;;;11.00;4.93;;;;;;;;;;4988513;28;20058;-70
2023/03/30 07:46:13;;;;;;;7.45;4.35;;;;;;;;;;4988638;28;20283;-72
2023/03/30 07:48:38;;;;;;;10.73;3.78;;;;;;;;;;4987887;28;20038;-72
2023/03/30 07:51:13;;;;;;;6.78;3.40;;;;;;;;;;4984314;28;20706;-70
2023/03/30 07:53:39;;;;;;;5.97;3.90;;;;;;;;;;4982009;28;20026;-69
2023/03/30 07:56:05;;;;;;;9.73;3.85;;;;;;;;;;4985917;28;20045;-72
2023/03/30 07:58:30;;;;;;;8.50;4.05;;;;;;;;;;4996813;28;20508;-71
2023/03/30 08:00:56;;;;;;;5.45;3.35;;;;;;;;;;4987787;28;20041;-70
2023/03/30 08:03:21;;;;;;;5.70;2.90;;;;;;;;;;4979754;28;20045;-71
2023/03/30 08:05:58;;;;;;;8.20;3.58;;;;;;;;;;4978650;28;20041;-71
2023/03/30 08:08:23;;;;;;;7.45;3.22;;;;;;;;;;4985954;28;20023;-71
2023/03/30 08:10:49;;;;;;;6.40;3.30;;;;;;;;;;4988323;28;20033;-72
2023/03/30 08:13:15;;;;;;;9.35;3.35;;;;;;;;;;4987771;28;20050;-71
2023/03/30 08:15:40;;;;;;;9.40;3.40;;;;;;;;;;4986295;28;20349;-71
2023/03/30 08:18:06;;;;;;;8.80;3.38;;;;;;;;;;4985906;28;20058;-71
2023/03/30 08:20:35;;;;;;;6.32;3.00;;;;;;;;;;4987439;28;20475;-71
2023/03/30 08:23:01;;;;;;;9.85;3.78;;;;;;;;;;4985987;28;20038;-71
2023/03/30 08:25:27;;;;;;;8.20;3.22;;;;;;;;;;4989732;28;20504;-70
2023/03/30 08:27:52;;;;;;;8.40;3.25;;;;;;;;;;4987686;28;20033;-70
2023/03/30 08:30:17;;;;;;;7.03;2.90;;;;;;;;;;4988130;28;20030;-70
2023/03/30 08:32:42;;;;;;;6.67;2.77;;;;;;;;;;4989477;28;20101;-69
2023/03/30 08:35:08;;;;;;;8.87;2.97;;;;;;;;;;4978294;28;20294;-69
2023/03/30 08:37:34;;;;;;;6.03;3.15;;;;;;;;;;4978218;28;20399;-70
2023/03/30 08:39:59;;;;;;;8.43;3.10;;;;;;;;;;4981502;28;20389;-69
2023/03/30 08:42:24;;;;;;;6.78;3.13;;;;;;;;;;4988107;28;20034;-70
2023/03/30 08:44:54;;;;;;;8.57;2.80;;;;;;;;;;4981823;28;20036;-69
2023/03/30 08:47:30;;;;;;;6.65;2.67;;;;;;;;;;4983020;28;20286;-70
2023/03/30 08:50:07;;;;;;;6.32;3.05;;;;;;;;;;4985549;28;20491;-71
2023/03/30 08:52:32;;;;;;;5.32;2.90;;;;;;;;;;4990166;28;20501;-70
2023/03/30 08:54:58;;;;;;;4.82;2.55;;;;;;;;;;4985396;28;20074;-70
2023/03/30 08:57:30;;;;;;;5.47;2.78;;;;;;;;;;4976577;28;20022;-70
2023/03/30 09:00:07;;;;;;;7.88;3.00;;;;;;;;;;4986128;28;20576;-70
2023/03/30 09:02:35;;;;;;;6.10;2.63;;;;;;;;;;4988201;28;20030;-71
2023/03/30 09:05:00;;;;;;;6.30;2.78;;;;;;;;;;4987335;28;20030;-70
2023/03/30 09:07:28;;;;;;;6.30;3.20;;;;;;;;;;4986327;28;20480;-71
2023/03/30 09:09:55;;;;;;;11.40;2.85;;;;;;;;;;4981260;28;20299;-71
2023/03/30 09:12:21;;;;;;;6.07;2.80;;;;;;;;;;4987343;28;20050;-71
2023/03/30 09:14:57;;;;;;;5.73;2.37;;;;;;;;;;4985782;28;20752;-71
2023/03/30 09:17:31;;;;;;;6.97;2.40;;;;;;;;;;4987608;28;20030;-71
2023/03/30 09:19:59;;;;;;;5.95;2.55;;;;;;;;;;4988619;28;20061;-71
2023/03/30 09:22:33;;;;;;;8.60;2.73;;;;;;;;;;4987218;28;20030;-71
2023/03/30 09:24:58;;;;;;;4.05;2.25;;;;;;;;;;4989083;28;20052;-70
2023/03/30 09:27:26;;;;;;;5.77;1.90;;;;;;;;;;4987995;28;20018;-70
2023/03/30 09:29:54;;;;;;;3.25;1.88;;;;;;;;;;4988522;28;20033;-70
2023/03/30 09:32:27;;;;;;;4.40;2.45;;;;;;;;;;4989291;28;20056;-70
2023/03/30 09:35:03;;;;;;;4.22;2.05;;;;;;;;;;4988004;28;20041;-70
2023/03/30 09:37:29;;;;;;;3.50;2.03;;;;;;;;;;4990670;28;20400;-70
2023/03/30 09:39:57;;;;;;;7.40;2.47;;;;;;;;;;4986898;28;20088;-71
2023/03/30 09:42:38;;;;;;;7.70;2.13;;;;;;;;;;4988877;28;20121;-70
2023/03/30 09:45:04;;;;;;;6.00;2.40;;;;;;;;;;4991541;28;20607;-70
2023/03/30 09:47:36;;;;;;;4.15;2.17;;;;;;;;;;4989011;28;20476;-70
2023/03/30 09:50:20;;;;;;;5.30;2.58;;;;;;;;;;4986689;28;20114;-72
2023/03/30 09:53:02;;;;;;;3.90;2.28;;;;;;;;;;4979547;28;20038;-71
2023/03/30 09:55:27;;;;;;;3.90;2.13;;;;;;;;;;4986478;28;20033;-72
2023/03/30 09:57:53;;;;;;;4.72;2.20;;;;;;;;;;4989017;28;20026;-71
2023/03/30 10:00:30;;;;;;;6.60;2.60;;;;;;;;;;4987837;28;20030;-72
2023/03/30 10:03:05;;;;;;;5.18;2.15;;;;;;;;;;4986796;28;20026;-72
2023/03/30 10:05:32;;;;;;;5.22;2.10;;;;;;;;;;4985373;28;20855;-71
2023/03/30 10:07:58;;;;;;;8.18;2.10;;;;;;;;;;4987696;28;20053;-72
2023/03/30 10:10:24;;;;;;;4.25;1.90;;;;;;;;;;4986686;28;20065;-69
2023/03/30 10:12:49;;;;;;;5.17;2.20;;;;;;;;;;4987352;28;20512;-69
2023/03/30 10:15:19;;;;;;;3.90;2.38;;;;;;;;;;4987277;28;20113;-69
2023/03/30 10:17:47;;;;;;;3.63;2.22;;;;;;;11.69;nan;101054.34;4986834;28;20038;-70
2023/03/30 10:20:16;;;;;;;2.65;1.70;;;;;;;;;;4987222;28;20026;-70
2023/03/30 10:22:52;;;;;;;3.60;1.92;;;;;;;;;;4987765;28;20495;-69
2023/03/30 10:25:20;;;;;;;3.53;1.70;;;;;;;;;;4986554;28;20026;-69
2023/03/30 10:27:49;;;;;;;4.10;1.80;;;;;;;12.07;nan;101022.56;4985383;28;20053;-69
2023/03/30 10:30:18;;;;;;;4.22;1.80;;;;;;;12.11;nan;101020.28;4982269;28;20388;-69
2023/03/30 10:32:47;;;;;;;2.88;1.67;;;;;;;12.59;nan;101063.63;4988013;28;20085;-69
2023/03/30 10:35:16;;;;;;;6.00;1.52;;;;;;;;;;4984627;28;20034;-70
2023/03/30 10:37:45;;;;;;;4.13;1.77;;;;;;;12.41;nan;101012.41;4977437;28;20400;-70
2023/03/30 10:40:18;;;;;;;3.80;1.90;;;;;;;12.43;nan;101006.94;4985225;28;20030;-69
2023/03/30 10:42:45;;;;;;;3.15;1.65;;;;;;;12.50;nan;101012.94;4985974;28;20139;-69
2023/03/30 10:45:36;;;;;;;4.55;1.90;;;;;;;12.58;nan;101020.53;4987846;28;20041;-68
2023/03/30 10:48:26;;;;;;;2.47;1.55;;;;;;;12.58;nan;101017.91;4985749;28;20533;-69
2023/03/30 10:51:02;;;;;;;4.63;1.52;;;;;;;12.63;nan;101023.31;4988196;28;20026;-70
2023/03/30 10:53:46;;;;;;;3.88;1.40;;;;;;;12.69;nan;101014.50;4986827;28;20152;-69
2023/03/30 10:56:12;;;;;;;3.65;1.70;;;;;;;12.74;nan;101006.72;4987573;28;20461;-69
2023/03/30 10:59:05;;;;;;;3.42;1.50;;;;;;;12.80;nan;101004.19;4988148;28;20038;-69
2023/03/30 11:01:54;;;;;;;7.95;1.70;;;;;;;12.81;nan;101005.81;4981812;28;20041;-68
2023/03/30 11:04:35;;;;;;;3.50;1.70;;;;;;;12.81;nan;100993.41;4988171;28;20480;-73
2023/03/30 11:07:01;;;;;;;6.53;1.50;;;;;;;12.84;nan;100990.31;4990308;28;20034;-73
2023/03/30 11:09:34;;;;;;;7.10;1.70;;;;;;;12.89;nan;100985.16;4986394;28;20064;-72
2023/03/30 11:12:05;;;;;;;2.65;1.50;;;;;;;12.91;nan;100983.09;4989702;28;20057;-73
2023/03/30 11:14:43;;;;;;;5.68;1.80;;;;;;;12.86;nan;100984.81;4987653;28;20496;-73
2023/03/30 11:17:37;;;;;;;4.30;2.50;;;;;;;12.86;nan;100982.19;4991568;28;20038;-73
2023/03/30 11:20:27;;;;;;;2.85;1.60;;;;;;;12.82;nan;100976.53;4989259;28;20038;-73
2023/03/30 11:23:12;;;;;;;6.05;1.40;;;;;;;12.80;nan;100975.94;4979251;28;20050;-73
2023/03/30 11:25:52;;;;;;;2.92;1.50;;;;;;;12.78;nan;100972.69;4987718;28;20246;-73
2023/03/30 11:28:35;;;;;;;8.60;1.75;;;;;;;12.75;nan;100965.22;4988904;28;20034;-73
2023/03/30 11:31:13;;;;;;;6.35;1.60;;;;;;;12.79;nan;100966.41;4989389;28;20049;-73
2023/03/30 11:33:49;;;;;;;6.72;1.98;;;;;;;12.72;nan;100944.56;4990908;28;20443;-73
2023/03/30 11:36:33;;;;;;;4.47;1.80;;;;;;;12.81;nan;100966.16;4992014;28;20664;-74
2023/03/30 11:39:05;;;;;;;2.92;1.50;;;;;;;12.82;nan;100965.94;4988972;28;20039;-73
2023/03/30 11:41:41;;;;;;;4.47;1.63;;;;;;;12.76;nan;100937.75;4988641;28;20038;-74
2023/03/30 11:44:09;;;;;;;6.05;1.98;;;;;;;12.83;nan;100938.47;4989270;28;20030;-74
2023/03/30 11:46:41;;;;;;;7.22;2.03;;;;;;;12.80;nan;100922.28;4990024;28;20034;-74
2023/03/30 11:49:19;;;;;;;3.38;1.48;;;;;;;12.96;nan;100932.19;4990070;28;20056;-74
2023/03/30 11:52:15;;;;;;;7.38;1.67;;;;;;;12.96;nan;100930.34;4986352;28;20400;-69
2023/03/30 11:54:59;;;;;;;3.35;1.70;;;;;;;12.97;nan;100929.31;4987934;28;20480;-68
2023/03/30 11:57:27;;;;;;;3.03;1.80;;;;;;;13.01;nan;100920.94;4988596;28;20495;-68
2023/03/30 12:00:08;;;;;;;4.40;1.52;;;;;;;12.97;nan;100924.03;4991201;28;20385;-70
2023/03/30 12:02:53;;;;;;;6.28;1.90;;;;;;;12.97;nan;100918.72;4988168;28;20611;-68
2023/03/30 12:05:39;;;;;;;3.88;1.42;;;;;;;13.00;nan;100917.50;4986139;28;20034;-68
2023/03/30 12:08:27;;;;;;;3.17;1.88;;;;;;;13.04;nan;100934.50;4983019;28;20022;-72
2023/03/30 12:11:06;;;;;;;6.07;2.00;;;;;;;13.01;nan;100918.31;4979862;28;20173;-71
2023/03/30 12:13:32;;;;;;;4.45;1.63;;;;;;;12.94;nan;100918.41;4997613;28;20821;-71
2023/03/30 12:16:04;;;;;;;5.72;1.60;;;;;;;13.04;nan;100925.75;4989609;28;20041;-71
2023/03/30 12:18:38;;;;;;;5.57;1.90;;;;;;;13.05;nan;100922.06;4987408;28;20785;-71
2023/03/30 12:21:22;;;;;;;5.63;2.00;;;;;;;13.04;nan;100923.91;4988952;28;20033;-71
2023/03/30 12:24:08;;;;;;;5.30;1.73;;;;;;;13.02;nan;100912.75;4989586;28;20161;-70
2023/03/30 12:26:36;;;;;;;6.90;2.08;;;;;;;12.97;nan;100905.50;4988004;28;20115;-71
2023/03/30 12:29:09;;;;;;;3.33;2.00;;;;;;;13.00;nan;100901.63;4980637;28;20037;-72
2023/03/30 12:31:54;;;;;;;3.95;1.95;;;;;;;12.98;nan;100888.63;4983486;28;20040;-72
2023/03/30 12:34:22;;;;;;;3.95;2.17;;;;;;;12.97;nan;100875.63;4981735;28;20126;-70
2023/03/30 12:37:01;;;;;;;3.95;2.13;;;;;;;12.96;nan;100869.56;4983656;28;20125;-71
2023/03/30 12:39:43;;;;;;;2.70;1.60;;;;;;;12.92;nan;100857.81;4979141;28;20539;-70
2023/03/30 12:42:33;;;;;;;3.80;1.70;;;;;;;12.96;nan;100866.91;4981796;28;20104;-71
2023/03/30 12:45:07;;;;;;;4.95;2.08;;;;;;;12.96;nan;100858.97;4980556;28;20033;-71
2023/03/30 12:47:39;;;;;;;5.63;1.90;;;;;;;12.94;nan;100861.03;4974791;28;20036;-71
2023/03/30 12:50:28;;;;;;;4.03;1.90;;;;;;;12.91;nan;100858.06;4980672;28;20203;-71
2023/03/30 12:53:02;;;;;;;4.00;1.80;;;;;;;12.86;nan;100847.38;4980786;28;20725;-71
2023/03/30 12:55:51;;;;;;;7.63;1.98;;;;;;;12.89;nan;100847.72;4987661;28;20570;-71
2023/03/30 12:58:25;;;;;;;6.20;2.28;;;;;;;12.89;nan;100847.72;4976936;28;20046;-71
2023/03/30 13:01:44;;;;;;;4.80;2.13;;;;;;;12.89;nan;100831.84;4983008;28;20023;-72
2023/03/30 13:04:13;;;;;;;4.65;1.80;;;;;;;;;;4909894;29;20034;-71
2023/03/30 13:06:46;;;;;;;5.93;2.35;;;;;;;;;;4928396;29;20123;-69
2023/03/30 13:09:14;;;;;;;7.55;2.20;;;;;;;;;;4925586;29;20059;-73
2023/03/30 13:11:52;;;;;;;4.90;1.90;;;;;;;;;;4926942;29;20043;-70
2023/03/30 13:14:29;;;;;;;7.28;2.25;;;;;;;;;;4927772;29;20071;-71
2023/03/30 13:16:55;;;;;;;8.45;2.90;;;;;;;;;;4926735;29;20036;-71
2023/03/30 13:19:32;;;;;;;5.83;1.87;;;;;;;;;;4926602;29;20051;-71
2023/03/30 13:22:03;;;;;;;9.80;2.10;;;;;;;;;;4927524;29;20148;-71
2023/03/30 13:24:31;;;;;;;3.80;2.17;;;;;;;;;;4928144;29;20416;-70
2023/03/30 13:27:15;;;;;;;4.53;2.05;;;;;;;;;;4928216;29;20035;-71
2023/03/30 13:29:41;;;;;;;6.85;2.10;;;;;;;;;;4929168;29;20038;-70
2023/03/30 13:32:29;;;;;;;4.45;2.40;;;;;;;;;;4928511;29;20564;-70
2023/03/30 13:34:57;;;;;;;5.43;2.47;;;;;;;;;;4888700;29;20086;-70
2023/03/30 13:37:26;;;;;;;3.75;2.03;;;;;;;;;;4902101;29;20095;-70
2023/03/30 13:39:51;;;;;;;9.27;2.35;;;;;;;;;;4912211;29;20226;-70
2023/03/30 13:42:23;;;;;;;4.63;2.00;;;;;;;;;;4926025;29;20544;-70
2023/03/30 13:44:51;;;;;;;6.13;2.42;;;;;;;;;;4926898;29;20036;-70
2023/03/30 13:47:43;;;;;;;4.03;2.08;;;;;;;;;;4904378;29;20557;-69
2023/03/30 13:50:15;;;;;;;5.15;2.65;;;;;;;;;;4913543;29;20050;-70
2023/03/30 13:52:45;;;;;;;7.45;2.55;;;;;;;;;;4909722;29;20128;-70
2023/03/30 13:55:21;;;;;;;7.82;2.58;;;;;;;;;;4923432;29;20035;-69
2023/03/30 13:57:46;;;;;;;5.47;2.30;;;;;;;;;;4926376;29;20050;-70
2023/03/30 14:00:24;;;;;;;5.47;2.35;;;;;;;;;;4927742;29;20048;-70
2023/03/30 14:02:49;;;;;;;4.55;2.42;;;;;;;;;;4911766;29;20065;-70
2023/03/30 14:05:23;;;;;;;4.13;2.42;;;;;;;13.77;nan;100681.03;4927998;29;20735;-70